Savoonga Airport

Current Flights

Departures
Arrivals
Info
Name: Savoonga Airport
Identifier:  SVA/PASA
Local Time:  18. Jun 09:04
City
Flights per Day
5 flights
Distance: 220km (137mi)
Punctuality
84% (0 flights per day delayed)
Delay Average: 4 minutes
Current Weather
 3 C (Humidity: 100%)
  15kt (27km/h / 17mph) from 250°
  Overcast at 200 feet (60 meter)
  9km (6 mi.)
 Mist
 METAR PASA 051816Z AUTO 25015KT 6SM BR OVC002 03/03 A3023 RMK AO2 $

Current Delays

Departures
N/A
Arrivals
N/A

Destinations

Top Destinations
Airport Flights
per week
Seats
per week
  Nome (OME) 21 - 3 0
  Gambell (GAM) 4 - 0 0

Airlines & Planes

Top Airlines
Airline Flights
per Day
Seats
per Day
Bering Air 3 -
Ravn Alaska 0 -
Ryan Air 0 -
Top Plane Types
Model Flights Seats
Beech 1900D 2.1/day - 0
Beech B200 Super King Air 1.3/day - 0
Construcciones C-212-CC 0.3/day - 0
Piper PA-31-350 0.0/day - 0